SAZR/RSA METAR and TAF weather

Enter ICAO airport designator
Station Type Date Time Source
SAZR METAR 2022/01/26 09:40 UTC NOAA

SAZR 260940Z 16009KT 7000 BKN009 19/18 Q1012


Station Type Date Time Source
SAZR Decoded METAR 2022/01/26 09:40 UTC NOAA

Santa Rosa Aerodrome, Argentina (SAZR) 36-34S 064-16W 191M
Jan 26, 2022 - 04:40 AM EST / 2022.01.26 0940 UTC
Wind: from the SSE (160 degrees) at 10 MPH (9 KT):0
Visibility: 4 mile(s):0
Sky conditions: mostly cloudy
Temperature: 66 F (19 C)
Dew Point: 64 F (18 C)
Relative Humidity: 93%
Pressure (altimeter): 29.88 in. Hg (1012 hPa)
ob: SAZR 260940Z 16009KT 7000 BKN009 19/18 Q1012
cycle: 9

Station Type Date Time Source
SAZR TAF 2022/01/23 00:21 UTC NOAA

TAF SAZR 232300Z 2400/2424 07005KT CAVOK TX33/2418Z TN16/2408Z PROB40 2403/2406 6000 -TSRA FEW050CB
BECMG 2407/2409 VRB03KT 5000 BR NSC
BECMG 2411/2413 12005KT CAVOK

Example: see airport list